sensor_id;sensor_type;location;lat;lon;timestamp;P1;durP1;ratioP1;P2;durP2;ratioP2
18689;SDS011;9782;52.930;15.562;2023-02-27T05:29:02;17.37;;;11.10;;
18689;SDS011;9782;52.930;15.562;2023-02-27T05:31:34;15.10;;;9.63;;
18689;SDS011;9782;52.930;15.562;2023-02-27T05:34:09;17.03;;;9.93;;
18689;SDS011;9782;52.930;15.562;2023-02-27T05:36:44;17.73;;;11.90;;
18689;SDS011;9782;52.930;15.562;2023-02-27T05:39:12;14.73;;;8.37;;
18689;SDS011;9782;52.930;15.562;2023-02-27T05:41:43;11.07;;;7.17;;
18689;SDS011;9782;52.930;15.562;2023-02-27T05:44:15;13.70;;;8.30;;
18689;SDS011;9782;52.930;15.562;2023-02-27T05:46:46;14.00;;;7.47;;
18689;SDS011;9782;52.930;15.562;2023-02-27T05:49:21;13.53;;;9.40;;
18689;SDS011;9782;52.930;15.562;2023-02-27T05:51:51;15.60;;;10.87;;
18689;SDS011;9782;52.930;15.562;2023-02-27T05:54:21;14.53;;;8.60;;
18689;SDS011;9782;52.930;15.562;2023-02-27T05:56:54;15.97;;;7.23;;
18689;SDS011;9782;52.930;15.562;2023-02-27T05:59:27;13.50;;;8.47;;
18689;SDS011;9782;52.930;15.562;2023-02-27T06:01:57;13.83;;;8.63;;
18689;SDS011;9782;52.930;15.562;2023-02-27T06:04:24;16.87;;;11.63;;
18689;SDS011;9782;52.930;15.562;2023-02-27T06:06:51;12.40;;;7.80;;
18689;SDS011;9782;52.930;15.562;2023-02-27T06:09:18;16.57;;;7.97;;
18689;SDS011;9782;52.930;15.562;2023-02-27T06:11:46;14.30;;;8.00;;
18689;SDS011;9782;52.930;15.562;2023-02-27T06:14:13;28.73;;;14.10;;
18689;SDS011;9782;52.930;15.562;2023-02-27T06:16:41;17.63;;;9.23;;
18689;SDS011;9782;52.930;15.562;2023-02-27T06:19:07;14.07;;;8.43;;
18689;SDS011;9782;52.930;15.562;2023-02-27T06:21:34;12.03;;;7.83;;
18689;SDS011;9782;52.930;15.562;2023-02-27T06:24:01;11.20;;;6.43;;
18689;SDS011;9782;52.930;15.562;2023-02-27T06:26:28;9.60;;;6.00;;
18689;SDS011;9782;52.930;15.562;2023-02-27T06:28:55;14.17;;;9.60;;
18689;SDS011;9782;52.930;15.562;2023-02-27T06:31:22;19.67;;;13.40;;
18689;SDS011;9782;52.930;15.562;2023-02-27T06:33:50;16.53;;;10.17;;
18689;SDS011;9782;52.930;15.562;2023-02-27T06:36:17;11.63;;;7.20;;
18689;SDS011;9782;52.930;15.562;2023-02-27T06:38:43;12.77;;;6.97;;
18689;SDS011;9782;52.930;15.562;2023-02-27T06:41:10;9.10;;;5.60;;
18689;SDS011;9782;52.930;15.562;2023-02-27T06:43:37;8.73;;;5.90;;
18689;SDS011;9782;52.930;15.562;2023-02-27T06:46:04;8.77;;;5.43;;
18689;SDS011;9782;52.930;15.562;2023-02-27T06:48:31;8.60;;;4.70;;
18689;SDS011;9782;52.930;15.562;2023-02-27T06:50:59;10.20;;;5.23;;
18689;SDS011;9782;52.930;15.562;2023-02-27T06:53:27;9.37;;;5.47;;
18689;SDS011;9782;52.930;15.562;2023-02-27T06:55:54;11.73;;;4.80;;
18689;SDS011;9782;52.930;15.562;2023-02-27T06:58:21;9.13;;;5.90;;
18689;SDS011;9782;52.930;15.562;2023-02-27T07:00:48;20.40;;;13.20;;
18689;SDS011;9782;52.930;15.562;2023-02-27T07:03:15;18.50;;;12.20;;
18689;SDS011;9782;52.930;15.562;2023-02-27T07:05:42;13.87;;;8.77;;
18689;SDS011;9782;52.930;15.562;2023-02-27T07:08:11;22.80;;;18.77;;
18689;SDS011;9782;52.930;15.562;2023-02-27T07:10:41;14.47;;;9.90;;
18689;SDS011;9782;52.930;15.562;2023-02-27T07:13:11;16.37;;;10.20;;
18689;SDS011;9782;52.930;15.562;2023-02-27T07:15:38;12.30;;;7.70;;
18689;SDS011;9782;52.930;15.562;2023-02-27T07:18:05;11.83;;;7.63;;
18689;SDS011;9782;52.930;15.562;2023-02-27T07:20:31;11.70;;;7.80;;
18689;SDS011;9782;52.930;15.562;2023-02-27T07:22:58;10.00;;;6.43;;
18689;SDS011;9782;52.930;15.562;2023-02-27T07:25:26;14.50;;;8.70;;
18689;SDS011;9782;52.930;15.562;2023-02-27T07:27:53;10.37;;;5.30;;
18689;SDS011;9782;52.930;15.562;2023-02-27T07:30:20;7.83;;;4.50;;
18689;SDS011;9782;52.930;15.562;2023-02-27T07:32:47;6.00;;;4.30;;
18689;SDS011;9782;52.930;15.562;2023-02-27T07:35:14;5.90;;;3.93;;
18689;SDS011;9782;52.930;15.562;2023-02-27T07:37:42;7.30;;;4.77;;
18689;SDS011;9782;52.930;15.562;2023-02-27T07:40:09;7.40;;;4.20;;
18689;SDS011;9782;52.930;15.562;2023-02-27T07:42:38;8.33;;;4.60;;
18689;SDS011;9782;52.930;15.562;2023-02-27T07:45:05;6.60;;;4.00;;
18689;SDS011;9782;52.930;15.562;2023-02-27T07:47:33;7.80;;;4.10;;
18689;SDS011;9782;52.930;15.562;2023-02-27T07:50:01;6.10;;;3.67;;
18689;SDS011;9782;52.930;15.562;2023-02-27T07:52:28;6.13;;;3.40;;
18689;SDS011;9782;52.930;15.562;2023-02-27T07:54:55;9.43;;;3.33;;
18689;SDS011;9782;52.930;15.562;2023-02-27T07:57:21;7.27;;;3.90;;
18689;SDS011;9782;52.930;15.562;2023-02-27T07:59:50;6.33;;;3.53;;
18689;SDS011;9782;52.930;15.562;2023-02-27T08:02:16;5.83;;;3.50;;
18689;SDS011;9782;52.930;15.562;2023-02-27T08:04:43;7.53;;;3.60;;
18689;SDS011;9782;52.930;15.562;2023-02-27T08:07:10;10.07;;;4.13;;
18689;SDS011;9782;52.930;15.562;2023-02-27T08:09:37;5.80;;;3.63;;
18689;SDS011;9782;52.930;15.562;2023-02-27T08:12:03;7.40;;;4.13;;
18689;SDS011;9782;52.930;15.562;2023-02-27T08:14:30;7.33;;;4.40;;
18689;SDS011;9782;52.930;15.562;2023-02-27T08:16:58;6.57;;;4.10;;
18689;SDS011;9782;52.930;15.562;2023-02-27T08:19:25;6.03;;;3.60;;
18689;SDS011;9782;52.930;15.562;2023-02-27T08:21:52;6.30;;;3.73;;
18689;SDS011;9782;52.930;15.562;2023-02-27T08:24:19;7.70;;;3.97;;
18689;SDS011;9782;52.930;15.562;2023-02-27T08:26:46;6.20;;;3.33;;
18689;SDS011;9782;52.930;15.562;2023-02-27T08:29:13;5.13;;;3.33;;
18689;SDS011;9782;52.930;15.562;2023-02-27T08:31:39;6.50;;;3.00;;
18689;SDS011;9782;52.930;15.562;2023-02-27T08:34:07;5.80;;;3.10;;
18689;SDS011;9782;52.930;15.562;2023-02-27T08:36:34;5.30;;;3.30;;
18689;SDS011;9782;52.930;15.562;2023-02-27T08:39:01;5.73;;;3.23;;
18689;SDS011;9782;52.930;15.562;2023-02-27T08:41:28;6.23;;;3.70;;
18689;SDS011;9782;52.930;15.562;2023-02-27T08:43:55;8.93;;;5.50;;
18689;SDS011;9782;52.930;15.562;2023-02-27T08:46:22;9.80;;;6.90;;
18689;SDS011;9782;52.930;15.562;2023-02-27T08:48:48;7.90;;;5.10;;
18689;SDS011;9782;52.930;15.562;2023-02-27T08:51:17;7.07;;;4.43;;
18689;SDS011;9782;52.930;15.562;2023-02-27T08:53:43;6.10;;;4.00;;
18689;SDS011;9782;52.930;15.562;2023-02-27T08:56:10;8.00;;;4.10;;
18689;SDS011;9782;52.930;15.562;2023-02-27T08:58:37;15.33;;;8.17;;
18689;SDS011;9782;52.930;15.562;2023-02-27T09:01:04;11.27;;;7.20;;
18689;SDS011;9782;52.930;15.562;2023-02-27T09:03:31;7.63;;;4.20;;
18689;SDS011;9782;52.930;15.562;2023-02-27T09:05:57;7.13;;;4.30;;
18689;SDS011;9782;52.930;15.562;2023-02-27T09:08:26;7.57;;;5.10;;
18689;SDS011;9782;52.930;15.562;2023-02-27T09:10:54;11.53;;;6.33;;
18689;SDS011;9782;52.930;15.562;2023-02-27T09:13:22;7.13;;;5.23;;
18689;SDS011;9782;52.930;15.562;2023-02-27T09:15:49;12.00;;;7.50;;
18689;SDS011;9782;52.930;15.562;2023-02-27T09:18:16;11.90;;;7.17;;
18689;SDS011;9782;52.930;15.562;2023-02-27T09:20:42;10.53;;;6.70;;
18689;SDS011;9782;52.930;15.562;2023-02-27T09:23:10;10.93;;;6.70;;
18689;SDS011;9782;52.930;15.562;2023-02-27T09:25:38;9.73;;;5.97;;
18689;SDS011;9782;52.930;15.562;2023-02-27T09:28:05;8.50;;;5.83;;
18689;SDS011;9782;52.930;15.562;2023-02-27T09:30:31;10.53;;;5.80;;
18689;SDS011;9782;52.930;15.562;2023-02-27T09:32:58;10.00;;;5.43;;
18689;SDS011;9782;52.930;15.562;2023-02-27T09:35:25;8.53;;;5.27;;
18689;SDS011;9782;52.930;15.562;2023-02-27T09:37:52;10.20;;;5.27;;
18689;SDS011;9782;52.930;15.562;2023-02-27T09:40:19;10.60;;;5.33;;
18689;SDS011;9782;52.930;15.562;2023-02-27T09:42:50;7.53;;;5.03;;
18689;SDS011;9782;52.930;15.562;2023-02-27T09:45:22;7.50;;;5.13;;
18689;SDS011;9782;52.930;15.562;2023-02-27T09:47:52;9.83;;;6.17;;
18689;SDS011;9782;52.930;15.562;2023-02-27T09:50:25;9.70;;;5.70;;
18689;SDS011;9782;52.930;15.562;2023-02-27T09:52:59;9.93;;;5.80;;
18689;SDS011;9782;52.930;15.562;2023-02-27T09:55:27;8.37;;;5.37;;
18689;SDS011;9782;52.930;15.562;2023-02-27T09:57:59;7.57;;;4.27;;
18689;SDS011;9782;52.930;15.562;2023-02-27T10:00:39;7.43;;;4.60;;
18689;SDS011;9782;52.930;15.562;2023-02-27T10:03:17;6.40;;;3.73;;
18689;SDS011;9782;52.930;15.562;2023-02-27T10:06:04;5.97;;;2.70;;
18689;SDS011;9782;52.930;15.562;2023-02-27T10:08:44;5.00;;;3.17;;
18689;SDS011;9782;52.930;15.562;2023-02-27T10:11:17;4.67;;;2.60;;
18689;SDS011;9782;52.930;15.562;2023-02-27T10:13:55;5.07;;;3.10;;
18689;SDS011;9782;52.930;15.562;2023-02-27T10:16:26;5.40;;;2.70;;
18689;SDS011;9782;52.930;15.562;2023-02-27T10:18:55;5.10;;;2.90;;
18689;SDS011;9782;52.930;15.562;2023-02-27T10:21:27;5.73;;;2.80;;
18689;SDS011;9782;52.930;15.562;2023-02-27T10:23:57;5.00;;;3.10;;
18689;SDS011;9782;52.930;15.562;2023-02-27T10:26:31;6.30;;;3.27;;
18689;SDS011;9782;52.930;15.562;2023-02-27T10:29:09;4.37;;;2.70;;
18689;SDS011;9782;52.930;15.562;2023-02-27T10:31:42;3.70;;;2.23;;
18689;SDS011;9782;52.930;15.562;2023-02-27T10:34:11;5.07;;;2.57;;
18689;SDS011;9782;52.930;15.562;2023-02-27T10:36:40;5.20;;;2.63;;
18689;SDS011;9782;52.930;15.562;2023-02-27T10:39:07;2.87;;;1.97;;
18689;SDS011;9782;52.930;15.562;2023-02-27T10:41:39;2.80;;;1.80;;
18689;SDS011;9782;52.930;15.562;2023-02-27T10:44:10;3.20;;;1.80;;
18689;SDS011;9782;52.930;15.562;2023-02-27T10:46:41;2.50;;;1.70;;
18689;SDS011;9782;52.930;15.562;2023-02-27T10:49:13;4.27;;;1.90;;
18689;SDS011;9782;52.930;15.562;2023-02-27T10:51:41;1.90;;;1.10;;
18689;SDS011;9782;52.930;15.562;2023-02-27T10:54:15;2.57;;;1.07;;
18689;SDS011;9782;52.930;15.562;2023-02-27T10:56:46;2.20;;;1.30;;
18689;SDS011;9782;52.930;15.562;2023-02-27T10:59:18;2.67;;;1.17;;
18689;SDS011;9782;52.930;15.562;2023-02-27T11:01:48;2.83;;;1.37;;
18689;SDS011;9782;52.930;15.562;2023-02-27T11:04:24;3.83;;;2.30;;
18689;SDS011;9782;52.930;15.562;2023-02-27T11:06:54;3.17;;;1.40;;
18689;SDS011;9782;52.930;15.562;2023-02-27T11:09:23;5.10;;;3.27;;
18689;SDS011;9782;52.930;15.562;2023-02-27T11:11:51;1.47;;;1.00;;
18689;SDS011;9782;52.930;15.562;2023-02-27T11:14:30;2.40;;;0.70;;
18689;SDS011;9782;52.930;15.562;2023-02-27T11:16:59;1.80;;;0.77;;
18689;SDS011;9782;52.930;15.562;2023-02-27T11:19:30;1.60;;;1.00;;
18689;SDS011;9782;52.930;15.562;2023-02-27T11:21:59;1.10;;;0.83;;
18689;SDS011;9782;52.930;15.562;2023-02-27T11:24:31;1.57;;;0.60;;
18689;SDS011;9782;52.930;15.562;2023-02-27T11:26:59;2.23;;;1.13;;
18689;SDS011;9782;52.930;15.562;2023-02-27T11:29:31;2.00;;;1.13;;
18689;SDS011;9782;52.930;15.562;2023-02-27T11:32:01;1.60;;;0.90;;
18689;SDS011;9782;52.930;15.562;2023-02-27T11:34:30;1.47;;;0.90;;
18689;SDS011;9782;52.930;15.562;2023-02-27T11:37:01;1.90;;;1.00;;
18689;SDS011;9782;52.930;15.562;2023-02-27T11:39:32;1.67;;;0.90;;
18689;SDS011;9782;52.930;15.562;2023-02-27T11:42:07;1.37;;;0.80;;
18689;SDS011;9782;52.930;15.562;2023-02-27T11:44:48;1.40;;;0.73;;
18689;SDS011;9782;52.930;15.562;2023-02-27T11:47:20;1.37;;;0.80;;
18689;SDS011;9782;52.930;15.562;2023-02-27T11:49:59;1.10;;;0.80;;
18689;SDS011;9782;52.930;15.562;2023-02-27T11:52:39;1.47;;;0.70;;
18689;SDS011;9782;52.930;15.562;2023-02-27T11:55:13;1.20;;;0.70;;
18689;SDS011;9782;52.930;15.562;2023-02-27T11:57:42;1.43;;;0.80;;
18689;SDS011;9782;52.930;15.562;2023-02-27T12:00:17;1.67;;;1.07;;
18689;SDS011;9782;52.930;15.562;2023-02-27T12:02:50;2.67;;;1.00;;
18689;SDS011;9782;52.930;15.562;2023-02-27T12:05:23;0.77;;;0.70;;
18689;SDS011;9782;52.930;15.562;2023-02-27T12:07:55;1.37;;;0.80;;
18689;SDS011;9782;52.930;15.562;2023-02-27T12:10:26;1.50;;;0.83;;
18689;SDS011;9782;52.930;15.562;2023-02-27T12:12:56;1.60;;;0.90;;
18689;SDS011;9782;52.930;15.562;2023-02-27T12:15:29;1.43;;;1.10;;
18689;SDS011;9782;52.930;15.562;2023-02-27T12:18:07;2.43;;;1.20;;
18689;SDS011;9782;52.930;15.562;2023-02-27T12:20:43;1.30;;;0.83;;
18689;SDS011;9782;52.930;15.562;2023-02-27T12:23:19;1.90;;;0.80;;
18689;SDS011;9782;52.930;15.562;2023-02-27T12:25:49;0.90;;;0.70;;
18689;SDS011;9782;52.930;15.562;2023-02-27T12:31:23;1.60;;;0.80;;
18689;SDS011;9782;52.930;15.562;2023-02-27T12:34:11;1.67;;;0.80;;
18689;SDS011;9782;52.930;15.562;2023-02-27T12:36:45;1.10;;;0.67;;
18689;SDS011;9782;52.930;15.562;2023-02-27T12:39:14;1.80;;;0.73;;
18689;SDS011;9782;52.930;15.562;2023-02-27T12:41:57;1.60;;;0.80;;
18689;SDS011;9782;52.930;15.562;2023-02-27T12:44:48;2.67;;;0.93;;
18689;SDS011;9782;52.930;15.562;2023-02-27T12:47:35;1.23;;;0.80;;
18689;SDS011;9782;52.930;15.562;2023-02-27T12:50:09;2.77;;;1.00;;
18689;SDS011;9782;52.930;15.562;2023-02-27T12:52:43;2.40;;;1.13;;
18689;SDS011;9782;52.930;15.562;2023-02-27T12:55:17;2.67;;;1.10;;
18689;SDS011;9782;52.930;15.562;2023-02-27T12:57:55;2.00;;;1.10;;
18689;SDS011;9782;52.930;15.562;2023-02-27T13:00:33;2.77;;;1.10;;
18689;SDS011;9782;52.930;15.562;2023-02-27T13:03:10;4.53;;;1.23;;
18689;SDS011;9782;52.930;15.562;2023-02-27T13:05:41;1.77;;;1.07;;
18689;SDS011;9782;52.930;15.562;2023-02-27T13:08:20;1.83;;;1.00;;
18689;SDS011;9782;52.930;15.562;2023-02-27T13:11:12;2.20;;;1.03;;
18689;SDS011;9782;52.930;15.562;2023-02-27T13:13:47;3.07;;;1.50;;
18689;SDS011;9782;52.930;15.562;2023-02-27T13:16:17;1.90;;;1.10;;
18689;SDS011;9782;52.930;15.562;2023-02-27T13:18:53;2.10;;;1.27;;
18689;SDS011;9782;52.930;15.562;2023-02-27T13:21:24;1.40;;;1.00;;
18689;SDS011;9782;52.930;15.562;2023-02-27T13:23:57;12.80;;;2.37;;
18689;SDS011;9782;52.930;15.562;2023-02-27T13:26:32;10.40;;;5.90;;
18689;SDS011;9782;52.930;15.562;2023-02-27T13:29:02;5.23;;;3.13;;
18689;SDS011;9782;52.930;15.562;2023-02-27T13:31:32;6.90;;;3.57;;
18689;SDS011;9782;52.930;15.562;2023-02-27T13:34:12;5.33;;;3.83;;
18689;SDS011;9782;52.930;15.562;2023-02-27T13:36:43;3.87;;;2.40;;
18689;SDS011;9782;52.930;15.562;2023-02-27T13:45:08;11.03;;;4.70;;
18689;SDS011;9782;52.930;15.562;2023-02-27T13:54:21;11.63;;;6.63;;
18689;SDS011;9782;52.930;15.562;2023-02-27T13:57:04;8.23;;;3.80;;
18689;SDS011;9782;52.930;15.562;2023-02-27T13:59:34;5.97;;;2.63;;
18689;SDS011;9782;52.930;15.562;2023-02-27T14:02:02;2.70;;;1.00;;
18689;SDS011;9782;52.930;15.562;2023-02-27T14:04:50;1.80;;;1.00;;
18689;SDS011;9782;52.930;15.562;2023-02-27T14:07:22;1.80;;;0.90;;
18689;SDS011;9782;52.930;15.562;2023-02-27T14:09:51;1.40;;;0.90;;
18689;SDS011;9782;52.930;15.562;2023-02-27T14:12:26;1.80;;;0.93;;
18689;SDS011;9782;52.930;15.562;2023-02-27T14:14:54;3.20;;;0.90;;
18689;SDS011;9782;52.930;15.562;2023-02-27T14:20:08;1.30;;;1.07;;
18689;SDS011;9782;52.930;15.562;2023-02-27T14:22:44;3.03;;;1.67;;
18689;SDS011;9782;52.930;15.562;2023-02-27T14:25:42;7.57;;;1.60;;
18689;SDS011;9782;52.930;15.562;2023-02-27T14:28:14;3.17;;;1.20;;
18689;SDS011;9782;52.930;15.562;2023-02-27T14:30:50;1.50;;;1.00;;
18689;SDS011;9782;52.930;15.562;2023-02-27T14:33:22;2.23;;;1.10;;
18689;SDS011;9782;52.930;15.562;2023-02-27T14:35:55;1.37;;;0.97;;
18689;SDS011;9782;52.930;15.562;2023-02-27T14:38:25;2.20;;;1.03;;
18689;SDS011;9782;52.930;15.562;2023-02-27T14:43:52;1.80;;;1.20;;
18689;SDS011;9782;52.930;15.562;2023-02-27T14:46:22;2.20;;;1.10;;
18689;SDS011;9782;52.930;15.562;2023-02-27T14:48:52;1.53;;;1.03;;
18689;SDS011;9782;52.930;15.562;2023-02-27T14:51:20;1.67;;;1.03;;
18689;SDS011;9782;52.930;15.562;2023-02-27T14:53:57;1.47;;;0.90;;
18689;SDS011;9782;52.930;15.562;2023-02-27T14:56:27;1.70;;;1.00;;
18689;SDS011;9782;52.930;15.562;2023-02-27T14:58:54;6.47;;;1.50;;
18689;SDS011;9782;52.930;15.562;2023-02-27T15:01:21;2.10;;;1.20;;
18689;SDS011;9782;52.930;15.562;2023-02-27T15:03:49;2.10;;;1.03;;
18689;SDS011;9782;52.930;15.562;2023-02-27T15:06:19;1.60;;;0.90;;
18689;SDS011;9782;52.930;15.562;2023-02-27T15:08:49;2.23;;;1.10;;
18689;SDS011;9782;52.930;15.562;2023-02-27T15:11:19;2.47;;;1.20;;
18689;SDS011;9782;52.930;15.562;2023-02-27T15:13:50;1.83;;;1.10;;
18689;SDS011;9782;52.930;15.562;2023-02-27T15:16:29;2.63;;;1.53;;
18689;SDS011;9782;52.930;15.562;2023-02-27T15:19:03;3.43;;;2.00;;
18689;SDS011;9782;52.930;15.562;2023-02-27T15:21:38;3.13;;;1.40;;
18689;SDS011;9782;52.930;15.562;2023-02-27T15:24:16;3.17;;;1.17;;
18689;SDS011;9782;52.930;15.562;2023-02-27T15:26:50;1.40;;;1.10;;
18689;SDS011;9782;52.930;15.562;2023-02-27T15:29:24;2.23;;;1.10;;
18689;SDS011;9782;52.930;15.562;2023-02-27T15:31:55;1.63;;;1.13;;
18689;SDS011;9782;52.930;15.562;2023-02-27T15:34:22;5.27;;;1.90;;
18689;SDS011;9782;52.930;15.562;2023-02-27T15:36:50;5.20;;;2.00;;
18689;SDS011;9782;52.930;15.562;2023-02-27T15:39:20;2.93;;;1.70;;
18689;SDS011;9782;52.930;15.562;2023-02-27T15:41:49;2.67;;;1.70;;
18689;SDS011;9782;52.930;15.562;2023-02-27T15:44:18;2.90;;;1.40;;
18689;SDS011;9782;52.930;15.562;2023-02-27T15:46:50;3.67;;;1.97;;
18689;SDS011;9782;52.930;15.562;2023-02-27T15:49:19;3.03;;;1.60;;
18689;SDS011;9782;52.930;15.562;2023-02-27T15:51:47;3.03;;;1.40;;
18689;SDS011;9782;52.930;15.562;2023-02-27T15:54:21;2.97;;;1.40;;
18689;SDS011;9782;52.930;15.562;2023-02-27T15:56:48;3.53;;;1.67;;
18689;SDS011;9782;52.930;15.562;2023-02-27T15:59:15;7.23;;;3.13;;
18689;SDS011;9782;52.930;15.562;2023-02-27T16:01:43;8.73;;;3.30;;
18689;SDS011;9782;52.930;15.562;2023-02-27T16:04:16;6.67;;;2.73;;
18689;SDS011;9782;52.930;15.562;2023-02-27T16:06:48;5.90;;;3.20;;
18689;SDS011;9782;52.930;15.562;2023-02-27T16:09:19;7.57;;;2.77;;
18689;SDS011;9782;52.930;15.562;2023-02-27T16:11:48;4.97;;;2.60;;
18689;SDS011;9782;52.930;15.562;2023-02-27T16:14:35;4.53;;;2.60;;
18689;SDS011;9782;52.930;15.562;2023-02-27T16:17:19;7.20;;;3.40;;
18689;SDS011;9782;52.930;15.562;2023-02-27T16:19:50;7.43;;;3.60;;
18689;SDS011;9782;52.930;15.562;2023-02-27T16:22:18;10.53;;;5.10;;
18689;SDS011;9782;52.930;15.562;2023-02-27T16:24:46;11.63;;;5.33;;
18689;SDS011;9782;52.930;15.562;2023-02-27T16:27:17;10.73;;;5.57;;
18689;SDS011;9782;52.930;15.562;2023-02-27T16:29:48;12.20;;;6.40;;
18689;SDS011;9782;52.930;15.562;2023-02-27T16:32:21;11.33;;;5.80;;
18689;SDS011;9782;52.930;15.562;2023-02-27T16:34:58;9.37;;;5.33;;
18689;SDS011;9782;52.930;15.562;2023-02-27T16:37:29;10.80;;;5.27;;
18689;SDS011;9782;52.930;15.562;2023-02-27T16:40:00;7.20;;;4.20;;
18689;SDS011;9782;52.930;15.562;2023-02-27T16:42:28;4.27;;;2.43;;
18689;SDS011;9782;52.930;15.562;2023-02-27T16:44:55;5.83;;;2.50;;
18689;SDS011;9782;52.930;15.562;2023-02-27T16:47:22;4.50;;;2.60;;
18689;SDS011;9782;52.930;15.562;2023-02-27T16:49:49;3.50;;;1.70;;
18689;SDS011;9782;52.930;15.562;2023-02-27T16:52:17;2.40;;;1.70;;
18689;SDS011;9782;52.930;15.562;2023-02-27T16:54:46;3.60;;;1.60;;
18689;SDS011;9782;52.930;15.562;2023-02-27T16:57:13;2.40;;;1.50;;
18689;SDS011;9782;52.930;15.562;2023-02-27T16:59:41;3.00;;;1.30;;
18689;SDS011;9782;52.930;15.562;2023-02-27T17:02:10;2.60;;;1.20;;
18689;SDS011;9782;52.930;15.562;2023-02-27T17:04:38;2.73;;;1.40;;
18689;SDS011;9782;52.930;15.562;2023-02-27T17:07:09;4.20;;;2.23;;
18689;SDS011;9782;52.930;15.562;2023-02-27T17:09:41;7.40;;;3.83;;
18689;SDS011;9782;52.930;15.562;2023-02-27T17:12:08;8.03;;;4.00;;
18689;SDS011;9782;52.930;15.562;2023-02-27T17:14:34;8.97;;;5.00;;
18689;SDS011;9782;52.930;15.562;2023-02-27T17:17:02;10.40;;;4.87;;
18689;SDS011;9782;52.930;15.562;2023-02-27T17:19:29;7.27;;;3.97;;
18689;SDS011;9782;52.930;15.562;2023-02-27T17:21:56;8.60;;;3.90;;
18689;SDS011;9782;52.930;15.562;2023-02-27T17:24:23;10.07;;;4.53;;
18689;SDS011;9782;52.930;15.562;2023-02-27T17:26:51;8.17;;;3.93;;
18689;SDS011;9782;52.930;15.562;2023-02-27T17:29:18;7.00;;;3.00;;
18689;SDS011;9782;52.930;15.562;2023-02-27T17:31:45;6.10;;;3.30;;
18689;SDS011;9782;52.930;15.562;2023-02-27T17:34:12;6.57;;;3.60;;
18689;SDS011;9782;52.930;15.562;2023-02-27T17:36:41;6.50;;;3.43;;
18689;SDS011;9782;52.930;15.562;2023-02-27T17:39:09;7.37;;;3.23;;
18689;SDS011;9782;52.930;15.562;2023-02-27T17:41:38;6.17;;;3.80;;
18689;SDS011;9782;52.930;15.562;2023-02-27T17:44:08;8.47;;;3.77;;
18689;SDS011;9782;52.930;15.562;2023-02-27T17:46:35;7.77;;;3.70;;
18689;SDS011;9782;52.930;15.562;2023-02-27T17:49:02;9.07;;;3.73;;
18689;SDS011;9782;52.930;15.562;2023-02-27T17:51:29;7.37;;;3.67;;
18689;SDS011;9782;52.930;15.562;2023-02-27T17:53:59;10.20;;;4.47;;
18689;SDS011;9782;52.930;15.562;2023-02-27T17:56:26;9.03;;;4.70;;
18689;SDS011;9782;52.930;15.562;2023-02-27T17:58:53;10.03;;;5.00;;
18689;SDS011;9782;52.930;15.562;2023-02-27T18:01:21;10.87;;;5.30;;
18689;SDS011;9782;52.930;15.562;2023-02-27T18:03:50;9.17;;;4.33;;
18689;SDS011;9782;52.930;15.562;2023-02-27T18:06:17;6.63;;;4.40;;
18689;SDS011;9782;52.930;15.562;2023-02-27T18:08:44;10.17;;;4.63;;
18689;SDS011;9782;52.930;15.562;2023-02-27T18:11:12;10.10;;;5.37;;
18689;SDS011;9782;52.930;15.562;2023-02-27T18:13:41;13.47;;;6.40;;
18689;SDS011;9782;52.930;15.562;2023-02-27T18:16:08;12.93;;;6.60;;
18689;SDS011;9782;52.930;15.562;2023-02-27T18:18:37;10.17;;;5.80;;
18689;SDS011;9782;52.930;15.562;2023-02-27T18:21:06;10.37;;;5.03;;
18689;SDS011;9782;52.930;15.562;2023-02-27T18:23:34;8.80;;;4.90;;
18689;SDS011;9782;52.930;15.562;2023-02-27T18:26:02;7.53;;;4.10;;
18689;SDS011;9782;52.930;15.562;2023-02-27T18:28:29;8.27;;;3.53;;
18689;SDS011;9782;52.930;15.562;2023-02-27T18:30:56;6.63;;;3.30;;
18689;SDS011;9782;52.930;15.562;2023-02-27T18:33:23;9.90;;;2.60;;
18689;SDS011;9782;52.930;15.562;2023-02-27T18:35:51;8.03;;;3.20;;
18689;SDS011;9782;52.930;15.562;2023-02-27T18:38:18;8.00;;;3.70;;
18689;SDS011;9782;52.930;15.562;2023-02-27T18:40:45;4.90;;;3.50;;
18689;SDS011;9782;52.930;15.562;2023-02-27T18:43:11;5.40;;;3.53;;
18689;SDS011;9782;52.930;15.562;2023-02-27T18:45:38;7.60;;;3.13;;
18689;SDS011;9782;52.930;15.562;2023-02-27T18:48:05;5.90;;;3.40;;
18689;SDS011;9782;52.930;15.562;2023-02-27T18:50:32;4.47;;;2.90;;
18689;SDS011;9782;52.930;15.562;2023-02-27T18:53:01;4.70;;;2.60;;
18689;SDS011;9782;52.930;15.562;2023-02-27T18:55:27;4.47;;;2.50;;
18689;SDS011;9782;52.930;15.562;2023-02-27T18:57:54;5.07;;;2.83;;
18689;SDS011;9782;52.930;15.562;2023-02-27T19:00:21;6.90;;;2.97;;
18689;SDS011;9782;52.930;15.562;2023-02-27T19:02:48;6.70;;;3.17;;
18689;SDS011;9782;52.930;15.562;2023-02-27T19:05:15;6.93;;;3.17;;
18689;SDS011;9782;52.930;15.562;2023-02-27T19:07:42;6.90;;;2.80;;
18689;SDS011;9782;52.930;15.562;2023-02-27T19:10:11;6.17;;;3.13;;
18689;SDS011;9782;52.930;15.562;2023-02-27T19:12:39;5.63;;;3.13;;
18689;SDS011;9782;52.930;15.562;2023-02-27T19:15:06;6.20;;;3.20;;
18689;SDS011;9782;52.930;15.562;2023-02-27T19:17:34;6.93;;;3.80;;
18689;SDS011;9782;52.930;15.562;2023-02-27T19:20:01;7.00;;;3.20;;
18689;SDS011;9782;52.930;15.562;2023-02-27T19:22:30;7.53;;;3.90;;
18689;SDS011;9782;52.930;15.562;2023-02-27T19:24:57;13.90;;;8.03;;
18689;SDS011;9782;52.930;15.562;2023-02-27T19:27:25;30.10;;;15.70;;
18689;SDS011;9782;52.930;15.562;2023-02-27T19:29:52;34.33;;;15.80;;
18689;SDS011;9782;52.930;15.562;2023-02-27T19:32:18;28.67;;;14.77;;
18689;SDS011;9782;52.930;15.562;2023-02-27T19:34:45;23.67;;;11.27;;
18689;SDS011;9782;52.930;15.562;2023-02-27T19:37:12;18.57;;;9.83;;
18689;SDS011;9782;52.930;15.562;2023-02-27T19:39:40;6.03;;;3.27;;
18689;SDS011;9782;52.930;15.562;2023-02-27T19:42:07;4.53;;;2.87;;
18689;SDS011;9782;52.930;15.562;2023-02-27T19:44:35;7.03;;;2.80;;
18689;SDS011;9782;52.930;15.562;2023-02-27T19:47:03;4.20;;;2.70;;
18689;SDS011;9782;52.930;15.562;2023-02-27T19:49:33;5.30;;;2.47;;
18689;SDS011;9782;52.930;15.562;2023-02-27T19:52:00;4.53;;;2.60;;
18689;SDS011;9782;52.930;15.562;2023-02-27T19:54:27;4.00;;;2.63;;
18689;SDS011;9782;52.930;15.562;2023-02-27T19:56:54;2.90;;;2.20;;
18689;SDS011;9782;52.930;15.562;2023-02-27T19:59:21;4.33;;;2.27;;
18689;SDS011;9782;52.930;15.562;2023-02-27T20:01:50;4.40;;;2.17;;
18689;SDS011;9782;52.930;15.562;2023-02-27T20:04:17;2.93;;;1.67;;
18689;SDS011;9782;52.930;15.562;2023-02-27T20:06:45;2.53;;;1.80;;
18689;SDS011;9782;52.930;15.562;2023-02-27T20:09:15;3.80;;;2.10;;
18689;SDS011;9782;52.930;15.562;2023-02-27T20:11:44;2.50;;;1.87;;
18689;SDS011;9782;52.930;15.562;2023-02-27T20:14:12;5.63;;;1.87;;
18689;SDS011;9782;52.930;15.562;2023-02-27T20:16:41;4.50;;;1.93;;
18689;SDS011;9782;52.930;15.562;2023-02-27T20:19:10;4.53;;;2.03;;
18689;SDS011;9782;52.930;15.562;2023-02-27T20:21:38;4.03;;;2.00;;
18689;SDS011;9782;52.930;15.562;2023-02-27T20:24:06;3.97;;;2.00;;
18689;SDS011;9782;52.930;15.562;2023-02-27T20:26:34;3.67;;;2.10;;
18689;SDS011;9782;52.930;15.562;2023-02-27T20:29:03;3.80;;;1.77;;
18689;SDS011;9782;52.930;15.562;2023-02-27T20:31:33;3.10;;;1.80;;
18689;SDS011;9782;52.930;15.562;2023-02-27T20:34:00;3.40;;;1.80;;
18689;SDS011;9782;52.930;15.562;2023-02-27T20:36:31;3.17;;;1.80;;
18689;SDS011;9782;52.930;15.562;2023-02-27T20:38:58;3.40;;;1.97;;
18689;SDS011;9782;52.930;15.562;2023-02-27T20:41:26;3.13;;;1.90;;
18689;SDS011;9782;52.930;15.562;2023-02-27T20:43:53;3.07;;;1.87;;
18689;SDS011;9782;52.930;15.562;2023-02-27T20:46:20;3.80;;;2.23;;
18689;SDS011;9782;52.930;15.562;2023-02-27T20:48:50;2.53;;;1.90;;